createdAt,value
2022-11-12T00:02:25.452Z,81.47
2022-11-12T00:05:10.545Z,81.50
2022-11-12T00:07:55.438Z,81.88
2022-11-12T00:10:40.581Z,81.29
2022-11-12T00:13:25.422Z,81.68
2022-11-12T00:16:10.694Z,81.65
2022-11-12T00:18:55.621Z,81.95
2022-11-12T00:21:40.918Z,81.89
2022-11-12T00:24:26.013Z,81.72
2022-11-12T00:27:11.879Z,81.72
2022-11-12T00:29:56.957Z,81.38
2022-11-12T00:32:42.249Z,81.65
2022-11-12T00:35:27.555Z,81.40
2022-11-12T00:38:12.434Z,81.72
2022-11-12T00:41:00.985Z,81.18
2022-11-12T00:43:48.851Z,80.87
2022-11-12T00:46:33.921Z,81.11
2022-11-12T00:49:18.970Z,81.50
2022-11-12T00:52:04.376Z,81.20
2022-11-12T00:54:49.180Z,81.13
2022-11-12T00:57:34.456Z,81.71
2022-11-12T01:00:21.676Z,81.50
2022-11-12T01:03:06.652Z,81.97
2022-11-12T01:05:51.930Z,82.06
2022-11-12T01:08:37.613Z,81.62
2022-11-12T01:11:25.668Z,82.22
2022-11-12T01:14:10.954Z,81.97
2022-11-12T01:16:56.111Z,82.04
2022-11-12T01:19:41.066Z,82.19
2022-11-12T01:22:26.261Z,82.19
2022-11-12T01:25:11.669Z,82.33
2022-11-12T01:27:56.579Z,81.85
2022-11-12T01:30:42.373Z,81.35
2022-11-12T01:33:27.182Z,81.82
2022-11-12T01:36:14.185Z,81.90
2022-11-12T01:38:59.466Z,81.91
2022-11-12T01:41:44.380Z,82.17
2022-11-12T01:44:35.392Z,82.03
2022-11-12T01:47:25.038Z,82.19
2022-11-12T01:50:30.839Z,81.85
2022-11-12T01:53:16.321Z,81.79
2022-11-12T01:56:04.654Z,81.63
2022-11-12T01:58:56.405Z,81.66
2022-11-12T02:01:42.182Z,81.73
2022-11-12T02:04:27.961Z,81.80
2022-11-12T02:07:13.559Z,81.69
2022-11-12T02:10:02.013Z,81.83
2022-11-12T02:13:07.356Z,82.46
2022-11-12T02:15:52.828Z,82.61
2022-11-12T02:18:38.218Z,81.95
2022-11-12T02:21:24.968Z,82.93
2022-11-12T02:24:12.562Z,83.36
2022-11-12T02:26:58.353Z,83.09
2022-11-12T02:29:46.374Z,83.70
2022-11-12T02:32:31.810Z,83.28
2022-11-12T02:35:17.205Z,83.97
2022-11-12T02:38:03.033Z,83.71
2022-11-12T02:40:48.191Z,84.20
2022-11-12T02:43:33.632Z,84.45
2022-11-12T02:46:18.401Z,84.74
2022-11-12T02:49:04.190Z,84.27
2022-11-12T02:51:49.481Z,84.35
2022-11-12T02:54:34.571Z,84.39
2022-11-12T02:57:19.885Z,84.14
2022-11-12T03:00:07.243Z,84.59
2022-11-12T03:03:01.891Z,84.69
2022-11-12T03:05:55.342Z,85.02
2022-11-12T03:08:40.821Z,85.19
2022-11-12T03:11:25.832Z,85.59
2022-11-12T03:14:10.805Z,86.67
2022-11-12T03:16:55.662Z,85.87
2022-11-12T03:19:40.807Z,85.62
2022-11-12T03:22:25.757Z,85.50
2022-11-12T03:25:10.893Z,85.88
2022-11-12T03:28:04.366Z,85.86
2022-11-12T03:30:49.806Z,85.58
2022-11-12T03:33:35.085Z,85.76
2022-11-12T03:36:20.131Z,85.89
2022-11-12T03:39:05.589Z,86.29
2022-11-12T03:41:50.762Z,86.12
2022-11-12T03:44:35.942Z,85.70
2022-11-12T03:47:21.147Z,85.45
2022-11-12T03:50:06.660Z,85.42
2022-11-12T03:52:54.649Z,85.12
2022-11-12T03:55:39.925Z,85.03
2022-11-12T03:58:25.559Z,85.44
2022-11-12T04:01:10.853Z,84.71
2022-11-12T04:03:55.685Z,84.58
2022-11-12T04:06:59.385Z,84.29
2022-11-12T04:09:44.432Z,84.87
2022-11-12T04:12:47.941Z,84.53
2022-11-12T04:15:33.457Z,85.11
2022-11-12T04:18:36.672Z,84.80
2022-11-12T04:21:50.186Z,84.97
2022-11-12T04:24:56.468Z,85.24
2022-11-12T04:27:42.599Z,84.92
2022-11-12T04:30:27.918Z,85.07
2022-11-12T04:33:12.882Z,85.03
2022-11-12T04:35:58.098Z,85.66
2022-11-12T04:38:43.244Z,85.95
2022-11-12T04:41:46.891Z,86.33
2022-11-12T04:44:50.577Z,87.96
2022-11-12T04:47:39.340Z,88.98
2022-11-12T04:50:24.753Z,88.59
2022-11-12T04:53:09.841Z,88.48
2022-11-12T04:55:57.996Z,88.08
2022-11-12T04:58:43.288Z,88.00
2022-11-12T05:01:28.069Z,87.71
2022-11-12T05:04:13.396Z,87.79
2022-11-12T05:06:59.080Z,87.13
2022-11-12T05:09:44.497Z,87.22
2022-11-12T05:12:29.563Z,87.25
2022-11-12T05:15:15.272Z,86.95
2022-11-12T05:18:00.213Z,86.31
2022-11-12T05:20:46.939Z,86.26
2022-11-12T05:23:32.135Z,86.44
2022-11-12T05:26:17.554Z,86.26
2022-11-12T05:29:07.573Z,86.24
2022-11-12T05:31:54.031Z,86.55
2022-11-12T05:34:39.439Z,86.11
2022-11-12T05:37:24.494Z,86.57
2022-11-12T05:40:10.089Z,86.76
2022-11-12T05:42:54.976Z,86.84
2022-11-12T05:45:44.679Z,86.24
2022-11-12T05:48:30.385Z,86.13
2022-11-12T05:51:16.092Z,86.63
2022-11-12T05:54:02.483Z,86.21
2022-11-12T05:56:47.947Z,85.68
2022-11-12T05:59:32.889Z,85.98
2022-11-12T06:02:18.185Z,85.65
2022-11-12T06:05:03.918Z,86.11
2022-11-12T06:07:49.278Z,85.62
2022-11-12T06:10:34.764Z,86.22
2022-11-12T06:13:21.337Z,86.37
2022-11-12T06:16:06.625Z,86.13
2022-11-12T06:18:51.491Z,86.00
2022-11-12T06:21:36.376Z,85.85
2022-11-12T06:24:21.513Z,86.07
2022-11-12T06:27:06.753Z,85.59
2022-11-12T06:29:52.381Z,86.05
2022-11-12T06:32:37.596Z,86.15
2022-11-12T06:35:22.505Z,86.07
2022-11-12T06:38:07.756Z,86.19
2022-11-12T06:40:52.627Z,86.09
2022-11-12T06:43:38.473Z,85.96
2022-11-12T06:46:23.370Z,85.70
2022-11-12T06:49:08.521Z,85.69
2022-11-12T06:51:53.593Z,85.84
2022-11-12T06:54:38.781Z,85.57
2022-11-12T06:57:23.903Z,86.02
2022-11-12T07:00:11.804Z,86.10
2022-11-12T07:02:56.981Z,85.92
2022-11-12T07:05:42.039Z,85.90
2022-11-12T07:08:27.202Z,86.57
2022-11-12T07:11:13.733Z,86.56
2022-11-12T07:13:58.885Z,86.76
2022-11-12T07:16:44.012Z,86.35
2022-11-12T07:19:28.997Z,86.49
2022-11-12T07:22:14.330Z,86.64
2022-11-12T07:24:59.468Z,86.37
2022-11-12T07:27:44.677Z,86.26
2022-11-12T07:30:29.507Z,86.06
2022-11-12T07:33:14.411Z,86.47
2022-11-12T07:36:02.669Z,86.10
2022-11-12T07:38:50.267Z,85.69
2022-11-12T07:41:35.525Z,86.43
2022-11-12T07:44:20.733Z,86.23
2022-11-12T07:47:05.787Z,86.16
2022-11-12T07:49:50.796Z,86.13
2022-11-12T07:52:35.703Z,86.51
2022-11-12T07:55:20.783Z,85.99
2022-11-12T07:58:06.472Z,86.22
2022-11-12T08:00:52.178Z,86.03
2022-11-12T08:03:37.933Z,86.14
2022-11-12T08:06:23.684Z,86.78
2022-11-12T08:09:09.173Z,86.58
2022-11-12T08:11:54.494Z,86.58
2022-11-12T08:14:39.939Z,86.47
2022-11-12T08:17:24.739Z,86.70
2022-11-12T08:20:10.318Z,86.71
2022-11-12T08:22:59.995Z,86.52
2022-11-12T08:25:45.354Z,86.74
2022-11-12T08:28:32.300Z,86.66
2022-11-12T08:31:20.677Z,86.64
2022-11-12T08:34:12.549Z,86.60
2022-11-12T08:36:57.919Z,86.06
2022-11-12T08:39:43.118Z,86.40
2022-11-12T08:42:28.261Z,86.48
2022-11-12T08:45:13.844Z,87.20
2022-11-12T08:47:59.963Z,87.22
2022-11-12T08:50:45.371Z,86.75
2022-11-12T08:53:31.066Z,86.61
2022-11-12T08:56:16.265Z,86.72
2022-11-12T08:59:06.218Z,87.38
2022-11-12T09:01:52.569Z,87.25
2022-11-12T09:04:37.640Z,87.19
2022-11-12T09:07:48.396Z,87.10
2022-11-12T09:10:28.637Z,87.50
2022-11-12T09:13:14.272Z,87.69
2022-11-12T09:16:04.616Z,87.71
2022-11-12T09:18:49.837Z,87.79
2022-11-12T09:21:35.134Z,87.88
2022-11-12T09:24:20.141Z,87.51
2022-11-12T09:27:05.501Z,87.82
2022-11-12T09:29:50.458Z,87.71
2022-11-12T09:32:35.474Z,87.13
2022-11-12T09:35:20.439Z,87.36
2022-11-12T09:38:05.765Z,87.26
2022-11-12T09:40:53.530Z,86.52
2022-11-12T09:43:50.372Z,86.41
2022-11-12T09:46:46.358Z,86.12
2022-11-12T09:50:18.520Z,85.99
2022-11-12T09:53:17.242Z,85.15
2022-11-12T09:56:07.185Z,85.03
2022-11-12T09:58:53.591Z,85.29
2022-11-12T10:01:50.744Z,84.80
2022-11-12T10:04:59.936Z,84.50
2022-11-12T10:08:27.223Z,83.92
2022-11-12T10:12:05.605Z,83.36
2022-11-12T10:14:59.603Z,83.59
2022-11-12T10:17:55.475Z,82.78
2022-11-12T10:20:51.231Z,82.35
2022-11-12T10:23:42.716Z,82.48
2022-11-12T10:26:31.911Z,81.86
2022-11-12T10:29:30.941Z,81.06
2022-11-12T10:32:16.679Z,81.27
2022-11-12T10:35:02.626Z,81.09
2022-11-12T10:38:04.618Z,80.88
2022-11-12T10:40:49.543Z,81.18
2022-11-12T10:43:35.585Z,80.52
2022-11-12T10:46:24.344Z,80.84
2022-11-12T10:49:15.322Z,80.71
2022-11-12T10:52:00.659Z,80.30
2022-11-12T10:54:50.977Z,79.55
2022-11-12T10:57:38.870Z,79.38
2022-11-12T11:00:24.718Z,80.09
2022-11-12T11:03:21.027Z,79.92
2022-11-12T11:06:17.319Z,79.66
2022-11-12T11:09:08.899Z,79.74
2022-11-12T11:11:54.836Z,79.79
2022-11-12T11:14:40.573Z,79.43
2022-11-12T11:17:25.625Z,79.45
2022-11-12T11:20:25.856Z,79.27
2022-11-12T11:23:11.329Z,78.95
2022-11-12T11:26:03.186Z,78.49
2022-11-12T11:29:21.381Z,78.02
2022-11-12T11:32:32.087Z,77.62
2022-11-12T11:35:53.947Z,76.68
2022-11-12T11:38:42.113Z,76.89
2022-11-12T11:41:54.366Z,76.07
2022-11-12T11:45:20.427Z,76.08
2022-11-12T11:48:11.388Z,76.00
2022-11-12T11:51:06.961Z,75.67
2022-11-12T11:54:28.344Z,75.39
2022-11-12T11:57:22.845Z,75.57
2022-11-12T12:00:19.417Z,75.98
2022-11-12T12:03:31.762Z,76.05
2022-11-12T12:06:25.889Z,75.46
2022-11-12T12:09:37.182Z,75.72
2022-11-12T12:12:31.465Z,74.72
2022-11-12T12:15:32.909Z,75.50
2022-11-12T12:18:44.096Z,76.45
2022-11-12T12:21:32.194Z,76.51
2022-11-12T12:24:23.939Z,76.92
2022-11-12T12:27:16.858Z,77.36
2022-11-12T12:30:17.211Z,77.36
2022-11-12T12:33:16.235Z,77.72
2022-11-12T12:36:07.780Z,78.08
2022-11-12T12:39:03.905Z,78.55
2022-11-12T12:42:15.708Z,78.78
2022-11-12T12:45:36.117Z,78.40
2022-11-12T12:48:28.220Z,78.17
2022-11-12T12:51:13.886Z,78.42
2022-11-12T12:53:59.205Z,78.70
2022-11-12T12:56:47.179Z,78.92
2022-11-12T12:59:32.409Z,78.92
2022-11-12T13:02:23.362Z,79.41
2022-11-12T13:05:25.196Z,80.09
2022-11-12T13:08:20.310Z,80.25
2022-11-12T13:11:05.649Z,81.02
2022-11-12T13:13:50.512Z,81.24
2022-11-12T13:16:53.826Z,81.38
2022-11-12T13:19:43.894Z,81.52
2022-11-12T13:22:37.956Z,81.95
2022-11-12T13:25:29.040Z,82.69
2022-11-12T13:28:14.343Z,82.82
2022-11-12T13:31:02.128Z,83.24
2022-11-12T13:33:48.315Z,83.23
2022-11-12T13:36:33.530Z,83.17
2022-11-12T13:39:20.201Z,82.97
2022-11-12T13:42:35.689Z,83.18
2022-11-12T13:45:24.197Z,83.14
2022-11-12T13:48:15.081Z,83.18
2022-11-12T13:51:04.498Z,83.56
2022-11-12T13:53:49.546Z,83.96
2022-11-12T13:56:35.964Z,84.18
2022-11-12T13:59:24.803Z,84.83
2022-11-12T14:02:22.095Z,85.54
2022-11-12T14:05:15.037Z,85.55
2022-11-12T14:08:12.335Z,86.04
2022-11-12T14:11:34.516Z,86.54
2022-11-12T14:14:34.597Z,86.76
2022-11-12T14:17:28.696Z,87.34
2022-11-12T14:20:36.196Z,87.52
2022-11-12T14:23:25.042Z,87.66
2022-11-12T14:26:12.892Z,87.84
2022-11-12T14:28:59.274Z,88.38
2022-11-12T14:31:44.726Z,88.77
2022-11-12T14:34:32.920Z,89.02
2022-11-12T14:37:41.652Z,89.12
2022-11-12T14:40:30.458Z,89.50
2022-11-12T14:43:28.186Z,89.78
2022-11-12T14:46:27.642Z,89.92
2022-11-12T14:49:16.818Z,90.27
2022-11-12T14:52:24.741Z,90.05
2022-11-12T14:55:17.333Z,90.49
2022-11-12T14:58:04.538Z,91.01
2022-11-12T15:00:55.075Z,90.82
2022-11-12T15:03:40.261Z,91.07
2022-11-12T15:06:31.354Z,91.24
2022-11-12T15:09:18.888Z,91.18
2022-11-12T15:12:21.105Z,91.82
2022-11-12T15:15:10.590Z,92.08
2022-11-12T15:18:00.675Z,92.52
2022-11-12T15:21:02.704Z,92.55
2022-11-12T15:24:17.825Z,93.01
2022-11-12T15:27:37.073Z,92.89
2022-11-12T15:30:28.650Z,93.21
2022-11-12T15:33:13.669Z,93.41
2022-11-12T15:36:00.873Z,93.38
2022-11-12T15:38:54.199Z,93.57
2022-11-12T15:41:40.106Z,94.15
2022-11-12T15:44:25.359Z,93.80
2022-11-12T15:47:29.250Z,93.88
2022-11-12T15:50:23.003Z,94.28
2022-11-12T15:53:08.384Z,94.26
2022-11-12T15:55:53.228Z,94.46
2022-11-12T15:58:40.522Z,94.43
2022-11-12T16:01:25.988Z,94.72
2022-11-12T16:04:14.249Z,94.72
2022-11-12T16:06:59.918Z,94.72
2022-11-12T16:09:45.128Z,95.58
2022-11-12T16:12:30.046Z,95.73
2022-11-12T16:15:18.240Z,95.36
2022-11-12T16:18:03.400Z,95.97
2022-11-12T16:20:49.812Z,95.65
2022-11-12T16:23:36.778Z,96.08
2022-11-12T16:26:27.715Z,95.79
2022-11-12T16:29:13.666Z,95.77
2022-11-12T16:31:58.636Z,95.75
2022-11-12T16:34:43.588Z,95.94
2022-11-12T16:37:28.837Z,96.53
2022-11-12T16:40:23.438Z,96.65
2022-11-12T16:43:08.767Z,96.30
2022-11-12T16:45:54.210Z,96.30
2022-11-12T16:48:39.492Z,96.29
2022-11-12T16:51:24.946Z,96.20
2022-11-12T16:54:10.536Z,96.35
2022-11-12T16:56:56.534Z,96.75
2022-11-12T16:59:41.631Z,96.86
2022-11-12T17:02:26.495Z,96.51
2022-11-12T17:05:22.952Z,96.47
2022-11-12T17:08:09.757Z,96.55
2022-11-12T17:10:55.910Z,96.48
2022-11-12T17:13:41.597Z,96.45
2022-11-12T17:16:26.713Z,96.45
2022-11-12T17:19:11.924Z,96.54
2022-11-12T17:21:57.123Z,95.59
2022-11-12T17:24:42.319Z,96.28
2022-11-12T17:27:28.414Z,96.03
2022-11-12T17:30:13.933Z,96.64
2022-11-12T17:32:59.811Z,96.56
2022-11-12T17:35:45.121Z,95.74
2022-11-12T17:38:30.473Z,95.84
2022-11-12T17:41:15.562Z,96.06
2022-11-12T17:44:01.312Z,95.98
2022-11-12T17:46:47.189Z,96.03
2022-11-12T17:49:32.080Z,96.17
2022-11-12T17:52:17.253Z,95.64
2022-11-12T17:55:02.718Z,95.67
2022-11-12T17:57:48.805Z,95.28
2022-11-12T18:00:35.062Z,95.19
2022-11-12T18:03:20.602Z,95.44
2022-11-12T18:06:12.284Z,95.41
2022-11-12T18:09:00.413Z,95.37
2022-11-12T18:11:48.607Z,94.76
2022-11-12T18:14:33.668Z,95.17
2022-11-12T18:17:19.174Z,95.26
2022-11-12T18:20:04.946Z,95.20
2022-11-12T18:22:50.202Z,95.46
2022-11-12T18:25:38.025Z,95.08
2022-11-12T18:28:23.261Z,95.73
2022-11-12T18:31:09.113Z,95.65
2022-11-12T18:33:55.325Z,95.37
2022-11-12T18:36:40.891Z,95.45
2022-11-12T18:39:26.439Z,95.61
2022-11-12T18:42:11.760Z,95.29
2022-11-12T18:44:56.872Z,95.68
2022-11-12T18:47:42.011Z,95.63
2022-11-12T18:50:27.290Z,94.87
2022-11-12T18:53:12.259Z,95.19
2022-11-12T18:56:06.830Z,95.31
2022-11-12T18:58:53.101Z,95.24
2022-11-12T19:01:38.386Z,95.31
2022-11-12T19:04:23.496Z,94.67
2022-11-12T19:07:09.071Z,94.88
2022-11-12T19:09:54.600Z,95.07
2022-11-12T19:12:39.569Z,95.16
2022-11-12T19:15:26.940Z,94.74
2022-11-12T19:18:12.139Z,94.31
2022-11-12T19:21:06.694Z,93.95
2022-11-12T19:23:56.021Z,94.47
2022-11-12T19:26:41.514Z,93.77
2022-11-12T19:29:26.972Z,93.85
2022-11-12T19:32:13.579Z,94.06
2022-11-12T19:34:58.655Z,93.56
2022-11-12T19:37:43.995Z,93.02
2022-11-12T19:40:28.792Z,93.76
2022-11-12T19:43:14.030Z,94.03
2022-11-12T19:45:59.067Z,93.56
2022-11-12T19:48:44.687Z,93.99
2022-11-12T19:51:30.795Z,93.48
2022-11-12T19:54:16.067Z,93.91
2022-11-12T19:57:00.826Z,93.54
2022-11-12T19:59:46.518Z,92.95
2022-11-12T20:02:31.814Z,93.46
2022-11-12T20:05:17.106Z,93.17
2022-11-12T20:08:02.136Z,93.21
2022-11-12T20:10:47.573Z,93.43
2022-11-12T20:13:32.718Z,94.19
2022-11-12T20:16:23.791Z,93.88
2022-11-12T20:19:10.767Z,93.78
2022-11-12T20:21:55.913Z,94.29
2022-11-12T20:24:41.244Z,94.37
2022-11-12T20:27:26.498Z,93.95
2022-11-12T20:30:12.088Z,93.05
2022-11-12T20:32:56.886Z,93.19
2022-11-12T20:35:42.069Z,93.94
2022-11-12T20:38:28.569Z,94.42
2022-11-12T20:41:22.960Z,94.52
2022-11-12T20:44:08.142Z,94.09
2022-11-12T20:46:53.449Z,94.64
2022-11-12T20:49:38.378Z,94.95
2022-11-12T20:52:23.553Z,94.95
2022-11-12T20:55:09.411Z,94.74
2022-11-12T20:57:54.417Z,94.80
2022-11-12T21:00:39.748Z,94.39
2022-11-12T21:03:25.055Z,94.33
2022-11-12T21:06:13.010Z,94.34
2022-11-12T21:08:59.724Z,94.62
2022-11-12T21:11:44.860Z,94.29
2022-11-12T21:14:30.498Z,94.30
2022-11-12T21:17:15.342Z,93.99
2022-11-12T21:20:00.321Z,94.50
2022-11-12T21:22:47.624Z,93.95
2022-11-12T21:25:36.569Z,93.68
2022-11-12T21:28:21.683Z,93.67
2022-11-12T21:31:13.009Z,93.72
2022-11-12T21:34:00.916Z,93.99
2022-11-12T21:36:45.914Z,93.41
2022-11-12T21:39:31.221Z,93.31
2022-11-12T21:42:16.414Z,93.49
2022-11-12T21:45:02.159Z,93.44
2022-11-12T21:47:47.308Z,93.14
2022-11-12T21:50:32.412Z,93.27
2022-11-12T21:53:17.776Z,92.91
2022-11-12T21:56:17.149Z,93.22
2022-11-12T21:59:04.085Z,92.74
2022-11-12T22:01:49.525Z,92.88
2022-11-12T22:04:34.493Z,92.62
2022-11-12T22:07:19.864Z,92.51
2022-11-12T22:10:05.868Z,92.62
2022-11-12T22:13:19.718Z,92.42
2022-11-12T22:15:57.149Z,92.45
2022-11-12T22:18:43.742Z,92.73
2022-11-12T22:21:35.390Z,93.02
2022-11-12T22:24:22.065Z,93.22
2022-11-12T22:27:07.174Z,92.85
2022-11-12T22:29:52.215Z,93.54
2022-11-12T22:32:37.176Z,92.67
2022-11-12T22:35:22.455Z,93.20
2022-11-12T22:38:07.545Z,93.39
2022-11-12T22:40:52.873Z,93.20
2022-11-12T22:43:38.494Z,93.23
2022-11-12T22:46:28.782Z,93.09
2022-11-12T22:49:14.002Z,93.07
2022-11-12T22:51:59.153Z,93.10
2022-11-12T22:54:44.231Z,93.09
2022-11-12T22:57:29.372Z,93.43
2022-11-12T23:00:15.162Z,92.72
2022-11-12T23:03:00.424Z,93.25
2022-11-12T23:05:45.273Z,93.46
2022-11-12T23:08:31.525Z,93.54
2022-11-12T23:11:19.757Z,93.66
2022-11-12T23:14:04.839Z,93.76
2022-11-12T23:16:52.557Z,93.58
2022-11-12T23:19:37.549Z,93.61
2022-11-12T23:22:22.740Z,94.17
2022-11-12T23:25:08.296Z,93.75
2022-11-12T23:27:53.276Z,94.20
2022-11-12T23:30:38.399Z,94.04
2022-11-12T23:33:23.608Z,94.25
2022-11-12T23:36:10.743Z,93.80
2022-11-12T23:38:56.992Z,93.76
2022-11-12T23:41:42.133Z,93.85
2022-11-12T23:44:27.016Z,93.48
2022-11-12T23:47:12.205Z,93.56
2022-11-12T23:49:57.181Z,93.86
2022-11-12T23:52:42.468Z,93.79
2022-11-12T23:55:29.325Z,93.34
2022-11-12T23:58:15.427Z,93.63
